Time;durP1;ratioP1;P1;durP2;ratioP2;P2;SDS_P1;SDS_P2;PMS_P1;PMS_P2;Temp;Humidity;BMP_temperature;BMP_pressure;BME280_temperature;BME280_humidity;BME280_pressure;Samples;Min_cycle;Max_cycle;Signal;HPM_P1;HPM_P2
2023/06/08 00:00:50;;;;;;;10.95;4.97;;;;;;;11.48;100.00;102037.66;10355520;28;20035;-81
2023/06/08 00:05:51;;;;;;;12.43;5.55;;;;;;;11.46;100.00;102042.56;10360107;28;20715;-88
2023/06/08 00:10:51;;;;;;;14.00;5.10;;;;;;;11.37;100.00;102019.16;10411706;28;21578;-89
2023/06/08 00:15:52;;;;;;;17.52;5.70;;;;;;;11.54;100.00;102037.81;10358178;28;20592;-89
2023/06/08 00:20:53;;;;;;;12.13;5.82;;;;;;;11.48;100.00;102021.13;10380381;28;20038;-89
2023/06/08 00:25:53;;;;;;;13.93;5.15;;;;;;;11.50;100.00;102023.66;10341163;28;20041;-90
2023/06/08 00:30:54;;;;;;;15.27;5.82;;;;;;;11.40;100.00;102018.66;10347374;28;20040;-87
2023/06/08 00:35:55;;;;;;;14.45;5.47;;;;;;;11.45;100.00;102029.88;10378849;28;20038;-88
2023/06/08 00:40:55;;;;;;;16.92;6.55;;;;;;;11.41;100.00;102031.41;10377344;28;20106;-88
2023/06/08 00:45:56;;;;;;;13.88;6.45;;;;;;;11.31;100.00;102020.06;10380075;28;20042;-76
2023/06/08 00:50:57;;;;;;;16.20;6.57;;;;;;;11.27;100.00;102016.94;10364618;28;20049;-88
2023/06/08 00:55:57;;;;;;;18.67;6.28;;;;;;;11.30;100.00;102019.22;10363361;28;20572;-90
2023/06/08 01:01:03;;;;;;;18.15;6.57;;;;;;;11.26;100.00;102004.22;10338658;28;20042;-88
2023/06/08 01:06:08;;;;;;;12.53;6.37;;;;;;;11.29;100.00;102019.47;10355779;28;20065;-88
2023/06/08 01:11:14;;;;;;;13.80;6.53;;;;;;;10.98;100.00;101966.19;10346570;28;20329;-88
2023/06/08 01:16:15;;;;;;;18.05;7.38;;;;;;;11.30;100.00;102018.38;10397756;28;20038;-88
2023/06/08 01:21:36;;;;;;;23.60;7.43;;;;;;;11.38;100.00;102018.06;10379799;28;20044;-89
2023/06/08 01:26:39;;;;;;;17.52;7.10;;;;;;;11.29;100.00;102005.69;10428447;28;20086;-88
2023/06/08 01:31:39;;;;;;;17.40;7.30;;;;;;;11.36;100.00;102017.44;10412825;28;20034;-88
2023/06/08 01:36:59;;;;;;;16.55;6.70;;;;;;;11.30;100.00;102001.84;10384723;28;20042;-88
2023/06/08 01:42:01;;;;;;;16.48;8.90;;;;;;;11.33;100.00;102004.16;10370048;28;20647;-89
2023/06/08 01:47:02;;;;;;;20.70;8.05;;;;;;;11.33;100.00;102012.41;10355194;28;20080;-89
2023/06/08 01:52:02;;;;;;;16.52;7.65;;;;;;;11.32;100.00;102019.00;10364574;28;20044;-89
2023/06/08 01:57:03;;;;;;;19.95;8.00;;;;;;;11.32;100.00;101994.19;10360412;28;20038;-89
2023/06/08 02:02:04;;;;;;;19.55;8.52;;;;;;;11.31;100.00;102000.78;10360843;28;20038;-88
2023/06/08 02:07:05;;;;;;;18.42;6.55;;;;;;;11.27;100.00;102002.31;10351198;28;20034;-88
2023/06/08 02:12:09;;;;;;;15.68;6.63;;;;;;;11.35;100.00;102009.41;10389685;28;20038;-89
2023/06/08 02:17:09;;;;;;;18.50;6.60;;;;;;;11.33;100.00;101993.13;10372307;28;20042;-89
2023/06/08 02:22:10;;;;;;;16.45;6.78;;;;;;;11.45;100.00;102018.84;10385903;28;20044;-88
2023/06/08 02:27:11;;;;;;;15.68;6.53;;;;;;;11.47;100.00;102019.44;10386936;28;20022;-88
2023/06/08 02:32:11;;;;;;;12.32;6.22;;;;;;;11.46;100.00;102017.75;10369299;28;20034;-89
2023/06/08 02:37:12;;;;;;;18.77;7.43;;;;;;;11.38;100.00;102003.44;10374566;28;20486;-76
2023/06/08 02:42:13;;;;;;;14.38;6.82;;;;;;;11.44;100.00;102008.88;10341995;28;20034;-89
2023/06/08 02:47:14;;;;;;;16.30;6.85;;;;;;;11.49;100.00;102019.19;10356802;28;20034;-89
2023/06/08 02:52:14;;;;;;;18.63;8.15;;;;;;;11.45;100.00;102018.84;10365317;28;20034;-88
2023/06/08 02:57:15;;;;;;;19.80;7.07;;;;;;;11.40;100.00;102002.13;10382761;28;20049;-87
2023/06/08 03:02:16;;;;;;;17.02;6.40;;;;;;;11.47;100.00;102013.06;10384960;28;20099;-89
2023/06/08 03:07:17;;;;;;;12.95;5.75;;;;;;;11.36;100.00;102009.19;10384163;28;20034;-89
2023/06/08 03:12:17;;;;;;;15.05;5.82;;;;;;;11.31;100.00;101998.84;10371278;28;20042;-88
2023/06/08 03:17:19;;;;;;;13.68;5.65;;;;;;;11.33;100.00;101998.63;10399354;28;20050;-88
2023/06/08 03:22:20;;;;;;;16.27;6.20;;;;;;;11.39;100.00;101994.94;10384770;28;20501;-89
2023/06/08 03:27:21;;;;;;;15.32;6.38;;;;;;;11.36;100.00;101984.38;10384325;28;20106;-88
2023/06/08 03:32:21;;;;;;;15.40;5.85;;;;;;;11.37;100.00;101990.72;10383236;28;20030;-89
2023/06/08 03:37:22;;;;;;;15.30;5.53;;;;;;;11.40;100.00;101990.25;10365106;28;20088;-88
2023/06/08 03:42:22;;;;;;;15.25;6.38;;;;;;;11.37;100.00;101983.31;10381559;28;20430;-89
2023/06/08 03:47:25;;;;;;;15.23;7.15;;;;;;;11.43;100.00;101974.09;10379867;28;20041;-87
2023/06/08 03:52:26;;;;;;;13.63;6.30;;;;;;;11.46;100.00;101973.63;10381232;28;20056;-89
2023/06/08 03:57:27;;;;;;;16.58;5.93;;;;;;;11.43;100.00;101971.34;10365967;28;20042;-78
2023/06/08 04:02:27;;;;;;;11.65;5.95;;;;;;;11.49;100.00;101986.09;10376713;28;20050;-88
2023/06/08 04:07:28;;;;;;;12.77;5.78;;;;;;;11.48;100.00;101982.50;10381012;28;20493;-88
2023/06/08 04:12:28;;;;;;;18.33;6.25;;;;;;;11.54;100.00;101980.75;10372422;28;20049;-87
2023/06/08 04:17:29;;;;;;;19.95;7.47;;;;;;;11.62;100.00;101982.34;10355955;28;20034;-88
2023/06/08 04:22:29;;;;;;;15.00;5.38;;;;;;;11.76;100.00;101983.81;10343626;28;20099;-88
2023/06/08 04:27:31;;;;;;;12.52;6.35;;;;;;;11.84;100.00;101969.66;10342290;28;20470;-87
2023/06/08 04:32:32;;;;;;;20.77;6.65;;;;;;;11.86;100.00;101975.78;10341258;28;20057;-88
2023/06/08 04:37:32;;;;;;;14.40;6.30;;;;;;;11.46;100.00;101921.22;10324290;28;20069;-77
2023/06/08 04:42:33;;;;;;;10.27;5.53;;;;;;;11.76;100.00;101970.03;10349038;28;20038;-88
2023/06/08 04:47:35;;;;;;;12.73;5.93;;;;;;;11.97;100.00;101976.09;10349905;28;20033;-90
2023/06/08 04:52:40;;;;;;;12.15;6.28;;;;;;;12.02;100.00;101970.72;10384257;28;20060;-88
2023/06/08 04:57:41;;;;;;;16.98;6.25;;;;;;;12.11;100.00;101969.28;10366373;28;20050;-86
2023/06/08 05:02:43;;;;;;;16.17;7.35;;;;;;;12.22;100.00;101968.47;10366546;28;20038;-88
2023/06/08 05:07:44;;;;;;;16.08;6.88;;;;;;;12.29;100.00;101960.88;10338547;28;20528;-88
2023/06/08 05:12:44;;;;;;;14.27;8.10;;;;;;;12.43;100.00;101955.13;10339340;28;20073;-89
2023/06/08 05:17:45;;;;;;;13.00;6.65;;;;;;;12.41;100.00;101968.34;10320032;28;20035;-89
2023/06/08 05:22:45;;;;;;;16.60;7.18;;;;;;;12.31;100.00;101953.19;10319428;28;20031;-89
2023/06/08 05:27:47;;;;;;;17.10;6.68;;;;;;;12.23;100.00;101972.06;10321084;28;20526;-85
2023/06/08 05:32:48;;;;;;;18.27;6.40;;;;;;;12.36;100.00;101955.28;10340298;28;20046;-87
2023/06/08 05:37:48;;;;;;;16.38;6.45;;;;;;;12.59;100.00;101962.72;10321585;28;20047;-77
2023/06/08 05:42:49;;;;;;;14.98;6.18;;;;;;;12.68;100.00;101957.66;10325872;28;20042;-85
2023/06/08 05:47:49;;;;;;;19.77;6.80;;;;;;;12.62;100.00;101947.56;10362304;28;20108;-88
2023/06/08 05:52:50;;;;;;;11.77;5.32;;;;;;;12.52;100.00;101942.63;10387823;28;20034;-88
2023/06/08 05:57:50;;;;;;;16.30;5.50;;;;;;;12.57;100.00;101945.53;10389363;28;20050;-77
2023/06/08 06:02:51;;;;;;;16.17;6.10;;;;;;;12.75;100.00;101946.47;10391210;28;21324;-88
2023/06/08 06:07:51;;;;;;;7.38;4.72;;;;;;;12.97;100.00;101947.50;10388275;28;20088;-89
2023/06/08 06:12:52;;;;;;;9.18;4.10;;;;;;;13.34;100.00;101929.75;10386006;28;20030;-88
2023/06/08 06:17:52;;;;;;;8.73;4.28;;;;;;;13.47;100.00;101935.78;10344376;28;20038;-89
2023/06/08 06:22:53;;;;;;;11.05;4.78;;;;;;;13.35;100.00;101923.94;10384185;28;20041;-90
2023/06/08 06:27:53;;;;;;;14.65;4.13;;;;;;;13.48;100.00;101922.81;10386566;28;20565;-89
2023/06/08 06:32:54;;;;;;;12.50;4.43;;;;;;;13.86;100.00;101946.19;10386096;28;20034;-88
2023/06/08 06:37:55;;;;;;;10.18;5.55;;;;;;;14.12;100.00;101940.00;10383968;28;20104;-89
2023/06/08 06:42:56;;;;;;;21.50;5.53;;;;;;;14.18;100.00;101946.44;10363007;28;20092;-89
2023/06/08 06:47:56;;;;;;;16.38;5.15;;;;;;;14.09;100.00;101945.19;10382416;28;20125;-90
2023/06/08 06:52:56;;;;;;;17.05;5.53;;;;;;;14.16;100.00;101926.47;10341520;28;20499;-90
2023/06/08 06:57:57;;;;;;;13.32;4.30;;;;;;;14.52;100.00;101943.63;10332945;28;20046;-92
2023/06/08 07:02:58;;;;;;;13.20;4.43;;;;;;;14.60;100.00;101931.31;10336899;28;20038;-93
2023/06/08 07:07:58;;;;;;;11.95;3.78;;;;;;;14.66;100.00;101936.66;10306894;28;20126;-92
2023/06/08 07:12:59;;;;;;;8.23;4.38;;;;;;;15.00;100.00;101936.53;10319108;28;20050;-85
2023/06/08 07:17:59;;;;;;;9.82;4.28;;;;;;;15.45;100.00;101932.63;10340776;28;20050;-90
2023/06/08 07:23:00;;;;;;;12.68;4.15;;;;;;;15.49;100.00;101931.00;10339947;28;20034;-90
2023/06/08 07:28:00;;;;;;;9.98;3.72;;;;;;;15.61;100.00;101921.69;10367241;28;20042;-89
2023/06/08 07:33:01;;;;;;;14.13;4.35;;;;;;;15.53;100.00;101923.00;10336199;28;20034;-89
2023/06/08 07:38:02;;;;;;;17.90;5.82;;;;;;;15.70;100.00;101920.94;10355394;28;20045;-89
2023/06/08 07:43:02;;;;;;;14.27;4.97;;;;;;;15.79;100.00;101913.00;10353837;28;20717;-92
2023/06/08 07:48:03;;;;;;;12.73;3.55;;;;;;;16.03;100.00;101909.88;10357273;28;20045;-88
2023/06/08 07:53:03;;;;;;;11.57;4.15;;;;;;;16.25;100.00;101926.44;10350223;28;20564;-89
2023/06/08 07:58:03;;;;;;;10.65;4.00;;;;;;;16.25;100.00;101920.88;10350370;28;20049;-89
2023/06/08 08:03:04;;;;;;;12.13;4.30;;;;;;;16.54;100.00;101938.03;10354343;28;20039;-91
2023/06/08 08:08:04;;;;;;;8.63;4.15;;;;;;;16.39;100.00;101935.13;10353087;28;20034;-80
2023/06/08 08:13:05;;;;;;;10.68;5.00;;;;;;;16.32;100.00;101899.25;10356993;28;21633;-90
2023/06/08 08:18:06;;;;;;;13.48;6.03;;;;;;;17.02;100.00;101908.25;10353209;28;20080;-90
2023/06/08 08:23:06;;;;;;;11.00;3.67;;;;;;;17.25;100.00;101918.03;10334390;28;20061;-91
2023/06/08 08:28:06;;;;;;;13.02;3.75;;;;;;;17.17;100.00;101898.28;10360627;28;20038;-93
2023/06/08 08:33:07;;;;;;;14.75;4.10;;;;;;;17.33;100.00;101911.94;10373634;28;20390;-93
2023/06/08 08:38:07;;;;;;;11.00;3.90;;;;;;;17.35;100.00;101918.06;10373922;28;20041;-95
2023/06/08 08:43:23;;;;;;;15.13;4.63;;;;;;;17.26;100.00;101911.38;10377832;28;20062;-91
2023/06/08 08:48:23;;;;;;;11.40;3.78;;;;;;;17.24;100.00;101905.25;10381667;28;20057;-89
2023/06/08 08:53:30;;;;;;;11.57;4.05;;;;;;;17.66;100.00;101897.81;10323114;28;20034;-89
2023/06/08 08:58:30;;;;;;;10.00;4.10;;;;;;;18.10;100.00;101902.84;10358765;28;20038;-89
2023/06/08 09:03:31;;;;;;;13.80;3.33;;;;;;;18.35;100.00;101913.97;10353467;28;20034;-90
2023/06/08 09:08:33;;;;;;;15.65;5.15;;;;;;;18.43;100.00;101898.59;10319328;28;20046;-88
2023/06/08 09:13:34;;;;;;;14.75;4.15;;;;;;;18.44;100.00;101896.63;10379365;28;20065;-88
2023/06/08 09:18:36;;;;;;;13.05;3.72;;;;;;;18.53;100.00;101908.91;10342299;28;20130;-88
2023/06/08 09:23:36;;;;;;;11.93;3.35;;;;;;;18.76;100.00;101911.03;10378114;28;20037;-86
2023/06/08 09:28:37;;;;;;;7.65;3.25;;;;;;;19.03;100.00;101892.28;10376787;28;20042;-88
2023/06/08 09:33:38;;;;;;;9.70;3.17;;;;;;;19.23;100.00;101896.94;10354758;28;20053;-88
2023/06/08 09:38:38;;;;;;;11.82;3.47;;;;;;;19.52;100.00;101899.81;10385076;28;20048;-88
2023/06/08 09:43:41;;;;;;;9.13;3.60;;;;;;;19.71;100.00;101894.38;10383921;28;20057;-90
2023/06/08 09:48:52;;;;;;;10.43;4.05;;;;;;;19.86;100.00;101879.47;10378998;28;20473;-90
2023/06/08 09:53:57;;;;;;;12.65;3.95;;;;;;;19.99;100.00;101870.41;10348266;28;20038;-90
2023/06/08 09:59:02;;;;;;;9.43;4.65;;;;;;;19.91;100.00;101871.03;10343196;28;20046;-91
2023/06/08 10:04:20;;;;;;;8.57;3.35;;;;;;;19.81;100.00;101871.97;10328888;28;20101;-92
2023/06/08 10:09:22;;;;;;;15.57;4.03;;;;;;;19.91;100.00;101873.84;10314939;28;20061;-90
2023/06/08 10:14:26;;;;;;;12.45;4.28;;;;;;;20.31;100.00;101878.16;10313358;28;20041;-90
2023/06/08 10:19:26;;;;;;;16.77;5.88;;;;;;;20.52;100.00;101875.16;10349810;28;20062;-92
2023/06/08 10:24:27;;;;;;;11.57;4.35;;;;;;;20.43;100.00;101861.00;10348002;28;20046;-91
2023/06/08 10:29:34;;;;;;;10.95;3.58;;;;;;;20.72;100.00;101865.72;10340741;28;20031;-90
2023/06/08 10:34:39;;;;;;;10.52;4.00;;;;;;;20.94;100.00;101865.16;10349617;28;20065;-91
2023/06/08 10:39:46;;;;;;;12.77;4.13;;;;;;;21.00;100.00;101863.97;10342550;28;20049;-91
2023/06/08 10:44:58;;;;;;;9.90;3.35;;;;;;;21.29;100.00;101866.63;10346140;28;20038;-92
2023/06/08 10:50:00;;;;;;;7.80;3.05;;;;;;;21.58;100.00;101856.38;10322464;28;20034;-91
2023/06/08 10:55:20;;;;;;;12.63;4.05;;;;;;;21.64;100.00;101843.97;10348046;28;20048;-80
2023/06/08 11:00:22;;;;;;;8.93;3.30;;;;;;;21.55;100.00;101841.84;10341237;28;20125;-89
2023/06/08 11:05:25;;;;;;;9.80;3.35;;;;;;;21.46;100.00;101838.09;10327580;28;20102;-92
2023/06/08 11:10:26;;;;;;;9.02;4.00;;;;;;;21.54;100.00;101828.16;10353145;28;20053;-94
2023/06/08 11:15:27;;;;;;;11.70;3.97;;;;;;;21.53;100.00;101841.31;10331434;28;20035;-92
2023/06/08 11:20:27;;;;;;;8.63;3.38;;;;;;;21.67;100.00;101832.16;10330718;28;20444;-90
2023/06/08 11:25:28;;;;;;;7.30;3.70;;;;;;;21.95;100.00;101822.69;10332314;28;20497;-89
2023/06/08 11:30:31;;;;;;;5.95;2.90;;;;;;;21.69;100.00;101811.09;10319599;28;20382;-93
2023/06/08 11:35:33;;;;;;;9.52;3.17;;;;;;;21.78;100.00;101819.59;10374870;23;20052;-72
2023/06/08 11:40:34;;;;;;;8.27;3.85;;;;;;;22.14;97.14;101796.53;10396606;28;20037;-72
2023/06/08 11:45:34;;;;;;;7.50;3.10;;;;;;;22.39;98.08;101802.78;10393595;28;20034;-73
2023/06/08 11:50:35;;;;;;;8.60;3.50;;;;;;;22.47;98.20;101782.41;10393259;28;20053;-73
2023/06/08 11:55:38;;;;;;;9.65;3.20;;;;;;;23.12;94.50;101784.06;10392781;28;20037;-73
2023/06/08 12:00:39;;;;;;;6.40;2.83;;;;;;;23.36;91.58;101775.34;10372713;28;20109;-72
2023/06/08 12:05:40;;;;;;;10.43;2.83;;;;;;;23.68;92.14;101773.38;10417304;28;20041;-72
2023/06/08 12:10:42;;;;;;;9.73;3.53;;;;;;;24.00;88.32;101765.78;10400431;28;20067;-72
2023/06/08 12:15:47;;;;;;;8.00;3.03;;;;;;;23.83;84.55;101744.06;10399850;28;20049;-72
2023/06/08 12:20:51;;;;;;;9.15;3.30;;;;;;;23.90;86.82;101755.69;10417366;28;20057;-73
2023/06/08 12:25:51;;;;;;;8.35;3.65;;;;;;;24.13;85.88;101748.81;10416999;28;20037;-73
2023/06/08 12:30:53;;;;;;;9.35;3.40;;;;;;;24.29;83.05;101745.53;10417628;28;20025;-73
2023/06/08 12:35:54;;;;;;;9.20;3.38;;;;;;;24.40;82.08;101746.09;10416058;28;20095;-73
2023/06/08 12:40:56;;;;;;;9.98;2.78;;;;;;;24.87;81.63;101760.44;10388793;28;20080;-72
2023/06/08 12:45:56;;;;;;;5.35;2.60;;;;;;;25.21;78.95;101748.34;10377331;28;20026;-74
2023/06/08 12:50:57;;;;;;;7.32;3.15;;;;;;;25.13;79.34;101749.97;10365467;28;20050;-74
2023/06/08 12:55:58;;;;;;;7.72;2.58;;;;;;;25.26;75.67;101733.25;10375669;28;20041;-74
2023/06/08 13:00:58;;;;;;;7.78;2.50;;;;;;;25.40;78.83;101735.88;10376279;28;20034;-72
2023/06/08 13:05:58;;;;;;;8.38;3.20;;;;;;;25.88;76.46;101744.06;10389512;28;20042;-72
2023/06/08 13:11:00;;;;;;;6.78;3.50;;;;;;;26.07;75.26;101735.19;10418005;28;20046;-73
2023/06/08 13:16:01;;;;;;;8.35;3.05;;;;;;;26.07;73.68;101729.56;10427403;28;20053;-72
2023/06/08 13:21:01;;;;;;;7.28;2.80;;;;;;;25.91;71.91;101715.19;10431707;28;20607;-73
2023/06/08 13:26:02;;;;;;;5.30;2.17;;;;;;;25.54;73.34;101720.41;10413599;28;20052;-73
2023/06/08 13:31:02;;;;;;;9.13;3.00;;;;;;;25.55;72.51;101724.91;10429595;28;20038;-73
2023/06/08 13:36:03;;;;;;;7.63;2.60;;;;;;;25.23;73.33;101723.47;10428252;28;20397;-73
2023/06/08 13:41:04;;;;;;;7.25;2.13;;;;;;;24.82;74.36;101713.53;10427313;28;20026;-73
2023/06/08 13:46:04;;;;;;;7.75;2.08;;;;;;;25.93;70.07;101710.03;10427439;28;20125;-75
2023/06/08 13:51:05;;;;;;;7.40;2.78;;;;;;;26.20;68.99;101692.97;10407643;28;20045;-75
2023/06/08 13:56:06;;;;;;;5.88;2.40;;;;;;;26.18;70.08;101693.28;10376035;28;20036;-72
2023/06/08 14:01:06;;;;;;;8.20;2.38;;;;;;;26.67;69.38;101690.81;10406500;28;20065;-73
2023/06/08 14:06:07;;;;;;;4.43;2.45;;;;;;;26.93;67.02;101681.28;10408310;28;20056;-73
2023/06/08 14:11:08;;;;;;;8.55;2.40;;;;;;;27.29;64.41;101677.81;10399283;28;20613;-73
2023/06/08 14:16:12;;;;;;;5.70;2.30;;;;;;;26.55;63.42;101665.31;10381789;28;20068;-72
2023/06/08 14:21:13;;;;;;;8.98;2.30;;;;;;;26.49;64.65;101663.88;10381696;28;20068;-73
2023/06/08 14:26:14;;;;;;;8.23;2.30;;;;;;;27.00;66.15;101678.75;10383218;28;20045;-73
2023/06/08 14:31:15;;;;;;;5.22;1.73;;;;;;;27.55;64.34;101674.69;10380831;28;20466;-73
2023/06/08 14:36:15;;;;;;;6.50;2.25;;;;;;;26.63;64.36;101664.44;10382547;28;20061;-73
2023/06/08 14:41:16;;;;;;;9.07;2.40;;;;;;;26.00;64.05;101660.69;10391749;28;20033;-73
2023/06/08 14:46:17;;;;;;;5.15;2.00;;;;;;;26.12;65.83;101646.69;10420756;28;20034;-72
2023/06/08 14:51:18;;;;;;;4.57;2.10;;;;;;;26.25;66.66;101654.09;10421354;28;20053;-72
2023/06/08 14:56:18;;;;;;;8.88;3.03;;;;;;;26.22;66.34;101651.94;10421153;28;20107;-72
2023/06/08 15:01:19;;;;;;;6.57;1.85;;;;;;;26.17;65.06;101638.03;10421414;28;20048;-72
2023/06/08 15:06:19;;;;;;;7.63;2.20;;;;;;;26.73;65.29;101640.63;10420540;28;20046;-73
2023/06/08 15:11:20;;;;;;;8.60;2.50;;;;;;;26.99;66.49;101634.69;10419674;28;20045;-72
2023/06/08 15:16:21;;;;;;;5.90;2.05;;;;;;;26.97;66.26;101634.22;10402506;28;20107;-72
2023/06/08 15:21:21;;;;;;;6.95;2.42;;;;;;;26.41;66.83;101631.69;10422037;28;20079;-73
2023/06/08 15:26:22;;;;;;;9.80;2.30;;;;;;;26.76;66.54;101637.91;10421960;28;20030;-73
2023/06/08 15:31:22;;;;;;;8.70;2.40;;;;;;;27.39;65.03;101625.66;10421216;28;20033;-73
2023/06/08 15:36:23;;;;;;;8.48;2.55;;;;;;;27.29;64.40;101620.44;10419065;28;20481;-72
2023/06/08 15:41:23;;;;;;;6.45;2.38;;;;;;;27.52;64.44;101621.63;10421071;28;20044;-73
2023/06/08 15:46:24;;;;;;;5.13;1.92;;;;;;;27.58;64.11;101627.91;10402643;28;20034;-71
2023/06/08 15:51:31;;;;;;;9.95;2.40;;;;;;;27.53;64.99;101619.63;10364567;28;20093;-71
2023/06/08 15:56:31;;;;;;;7.43;2.53;;;;;;;27.03;64.60;101609.41;10398794;28;20057;-72
2023/06/08 16:01:32;;;;;;;5.15;2.47;;;;;;;27.12;64.32;101605.31;10383476;28;20062;-71
2023/06/08 16:06:34;;;;;;;11.43;2.55;;;;;;;26.82;64.74;101596.13;10391706;28;20033;-72
2023/06/08 16:11:35;;;;;;;8.65;3.22;;;;;;;26.73;65.61;101599.06;10395668;28;20046;-72
2023/06/08 16:16:35;;;;;;;9.57;3.13;;;;;;;26.68;65.33;101604.91;10420286;28;20124;-71
2023/06/08 16:21:37;;;;;;;8.60;2.28;;;;;;;26.47;66.31;101609.72;10413075;28;20518;-72
2023/06/08 16:26:37;;;;;;;7.50;2.70;;;;;;;27.36;64.19;101598.06;10396677;28;20472;-71
2023/06/08 16:31:40;;;;;;;10.82;2.47;;;;;;;27.20;62.13;101619.66;10398419;28;20097;-71
2023/06/08 16:36:40;;;;;;;6.10;2.35;;;;;;;26.75;60.63;101604.38;10396487;28;20128;-70
2023/06/08 16:41:41;;;;;;;8.98;2.20;;;;;;;25.88;61.21;101579.59;10371255;28;20148;-68
2023/06/08 16:46:41;;;;;;;6.28;2.20;;;;;;;24.64;62.35;101604.88;10394526;28;20049;-70
2023/06/08 16:51:42;;;;;;;7.70;2.65;;;;;;;23.32;65.78;101609.38;10436132;28;20041;-67
2023/06/08 16:56:42;;;;;;;8.13;1.98;;;;;;;22.34;68.84;101613.78;10458761;28;20056;-68
2023/06/08 17:01:43;;;;;;;9.70;2.65;;;;;;;21.49;71.49;101635.75;10439392;28;20037;-72
2023/06/08 17:06:43;;;;;;;5.05;2.30;;;;;;;20.75;72.28;101639.31;10447045;28;20052;-70
2023/06/08 17:11:44;;;;;;;6.57;2.63;;;;;;;19.75;73.72;101638.44;10421182;28;20033;-69
2023/06/08 17:16:46;;;;;;;6.93;1.90;;;;;;;19.51;76.24;101641.19;10430224;28;20037;-71
2023/06/08 17:21:46;;;;;;;8.30;2.30;;;;;;;19.46;79.42;101642.09;10449576;28;20040;-71
2023/06/08 17:26:47;;;;;;;5.72;2.17;;;;;;;19.33;81.04;101640.00;10416601;28;20037;-69
2023/06/08 17:31:47;;;;;;;9.55;2.92;;;;;;;19.31;82.31;101645.03;10445265;28;20047;-68
2023/06/08 17:36:48;;;;;;;9.18;2.17;;;;;;;19.09;84.50;101646.34;10428300;28;20233;-69
2023/06/08 17:41:48;;;;;;;7.30;3.60;;;;;;;18.83;87.60;101650.50;10438464;28;20072;-69
2023/06/08 17:46:49;;;;;;;9.88;2.22;;;;;;;18.84;88.15;101643.78;10447732;28;20481;-69
2023/06/08 17:51:49;;;;;;;5.82;1.80;;;;;;;18.70;91.20;101641.63;10441898;28;20083;-72
2023/06/08 17:56:50;;;;;;;10.20;2.00;;;;;;;18.57;91.68;101630.31;10455870;28;20044;-72
2023/06/08 18:01:50;;;;;;;7.95;2.20;;;;;;;18.34;93.34;101641.88;10463964;28;20036;-70
2023/06/08 18:06:52;;;;;;;9.02;2.17;;;;;;;18.02;95.04;101638.72;10462934;28;20037;-70
2023/06/08 18:11:52;;;;;;;6.60;2.13;;;;;;;17.87;98.11;101656.34;10450310;28;20049;-70
2023/06/08 18:16:53;;;;;;;11.32;2.58;;;;;;;17.54;99.48;101653.88;10459373;28;20172;-69
2023/06/08 18:21:53;;;;;;;9.88;2.75;;;;;;;17.33;100.00;101661.44;10404808;28;20029;-69
2023/06/08 18:26:54;;;;;;;7.82;2.60;;;;;;;17.15;100.00;101679.56;10417290;28;20033;-68
2023/06/08 18:31:54;;;;;;;7.85;3.00;;;;;;;16.97;100.00;101666.22;10457156;28;20045;-69
2023/06/08 18:36:55;;;;;;;8.63;3.38;;;;;;;16.83;100.00;101663.16;10428242;28;20052;-69
2023/06/08 18:41:55;;;;;;;11.15;2.15;;;;;;;16.78;100.00;101674.22;10438101;28;20098;-69
2023/06/08 18:46:56;;;;;;;11.82;3.50;;;;;;;16.66;100.00;101682.84;10432877;28;20037;-70
2023/06/08 18:52:02;;;;;;;7.57;2.05;;;;;;;16.50;100.00;101686.72;10437860;28;20042;-69
2023/06/08 18:57:03;;;;;;;10.70;2.75;;;;;;;16.13;100.00;101668.25;10391878;28;20647;-70
2023/06/08 19:02:03;;;;;;;9.98;2.58;;;;;;;16.18;100.00;101701.59;10402131;28;20113;-70
2023/06/08 19:07:04;;;;;;;7.85;2.15;;;;;;;15.85;100.00;101691.75;10414578;28;20129;-70
2023/06/08 19:12:07;;;;;;;11.38;2.35;;;;;;;15.78;100.00;101710.59;10404305;28;20040;-70
2023/06/08 19:17:07;;;;;;;13.85;3.13;;;;;;;15.56;100.00;101708.75;10393787;28;20042;-69
2023/06/08 19:22:09;;;;;;;10.07;2.80;;;;;;;15.41;100.00;101708.66;10393783;28;20040;-70
2023/06/08 19:27:10;;;;;;;7.80;2.33;;;;;;;15.33;100.00;101712.75;10386289;28;20049;-70
2023/06/08 19:32:10;;;;;;;10.20;2.78;;;;;;;15.13;100.00;101699.56;10394245;28;20029;-70
2023/06/08 19:37:11;;;;;;;9.20;2.97;;;;;;;14.92;100.00;101720.72;10391656;28;20093;-69
2023/06/08 19:42:11;;;;;;;8.38;2.55;;;;;;;14.80;100.00;101722.81;10372626;28;20070;-70
2023/06/08 19:47:12;;;;;;;7.53;2.40;;;;;;;14.72;100.00;101727.75;10403888;28;20121;-69
2023/06/08 19:52:13;;;;;;;9.80;2.75;;;;;;;14.54;100.00;101740.00;10415505;28;20053;-70
2023/06/08 19:57:13;;;;;;;6.18;2.83;;;;;;;14.35;100.00;101737.84;10396400;28;20045;-70
2023/06/08 20:02:14;;;;;;;7.65;2.38;;;;;;;14.20;100.00;101747.63;10400766;28;20053;-71
2023/06/08 20:07:15;;;;;;;10.30;3.05;;;;;;;14.01;100.00;101754.56;10371389;28;20987;-71
2023/06/08 20:12:15;;;;;;;9.18;2.70;;;;;;;13.91;100.00;101750.56;10364608;28;20041;-71
2023/06/08 20:17:16;;;;;;;7.20;2.45;;;;;;;13.81;100.00;101755.09;10373572;28;20053;-73
2023/06/08 20:22:16;;;;;;;11.40;4.28;;;;;;;13.58;100.00;101740.41;10401640;28;20096;-72
2023/06/08 20:27:18;;;;;;;10.38;3.85;;;;;;;13.52;100.00;101750.53;10394961;28;20146;-70
2023/06/08 20:32:19;;;;;;;12.80;3.40;;;;;;;13.46;100.00;101770.91;10393291;28;20033;-71
2023/06/08 20:37:20;;;;;;;16.92;3.13;;;;;;;13.41;100.00;101779.13;10407878;28;20045;-70
2023/06/08 20:42:20;;;;;;;7.65;2.97;;;;;;;13.31;100.00;101774.28;10401591;28;20041;-72
2023/06/08 20:47:21;;;;;;;9.40;2.75;;;;;;;13.22;100.00;101774.91;10390170;28;20037;-72
2023/06/08 20:52:21;;;;;;;6.18;2.80;;;;;;;13.15;100.00;101771.44;10388227;28;20060;-71
2023/06/08 20:57:22;;;;;;;11.30;3.63;;;;;;;13.03;100.00;101777.06;10415330;28;20061;-71
2023/06/08 21:02:22;;;;;;;10.18;2.90;;;;;;;12.91;100.00;101774.34;10377735;28;20026;-72
2023/06/08 21:07:23;;;;;;;10.50;3.45;;;;;;;12.77;100.00;101778.50;10401896;28;20037;-71
2023/06/08 21:12:23;;;;;;;8.35;3.38;;;;;;;12.69;100.00;101783.34;10400948;28;20080;-72
2023/06/08 21:17:24;;;;;;;13.13;3.25;;;;;;;12.62;100.00;101782.63;10382766;28;20033;-71
2023/06/08 21:22:24;;;;;;;12.07;3.88;;;;;;;12.51;100.00;101780.78;10416155;28;20029;-71
2023/06/08 21:27:25;;;;;;;14.18;3.65;;;;;;;12.48;100.00;101792.28;10422746;28;20033;-71
2023/06/08 21:32:26;;;;;;;14.70;4.10;;;;;;;12.47;100.00;101796.16;10424596;28;20091;-72
2023/06/08 21:37:26;;;;;;;16.83;4.40;;;;;;;12.45;100.00;101792.78;10413070;28;20049;-71
2023/06/08 21:42:27;;;;;;;7.47;3.28;;;;;;;12.39;100.00;101786.31;10403855;28;20042;-71
2023/06/08 21:47:28;;;;;;;15.32;3.97;;;;;;;12.33;100.00;101784.53;10424385;28;20064;-71
2023/06/08 21:52:28;;;;;;;13.07;3.60;;;;;;;12.28;100.00;101788.03;10421613;28;20060;-69
2023/06/08 21:57:29;;;;;;;9.55;4.35;;;;;;;12.23;100.00;101789.84;10423310;28;20045;-71
2023/06/08 22:02:29;;;;;;;13.77;3.65;;;;;;;12.08;100.00;101791.19;10423142;28;20032;-71
2023/06/08 22:07:30;;;;;;;15.25;4.05;;;;;;;12.00;100.00;101785.19;10388331;28;20066;-70
2023/06/08 22:12:31;;;;;;;13.75;3.85;;;;;;;11.98;100.00;101785.44;10409916;28;20038;-72
2023/06/08 22:17:32;;;;;;;14.90;4.38;;;;;;;11.90;100.00;101778.34;10400176;28;20050;-71
2023/06/08 22:22:32;;;;;;;11.15;4.07;;;;;;;11.91;100.00;101788.31;10388972;28;20118;-71
2023/06/08 22:27:33;;;;;;;24.25;5.70;;;;;;;11.78;100.00;101780.28;10391223;28;20086;-71
2023/06/08 22:32:33;;;;;;;13.50;5.60;;;;;;;11.82;100.00;101789.72;10394201;28;20431;-71
2023/06/08 22:37:34;;;;;;;13.57;5.43;;;;;;;11.78;100.00;101799.59;10402057;28;20057;-71
2023/06/08 22:42:34;;;;;;;14.00;4.55;;;;;;;11.68;100.00;101786.38;10407660;28;20038;-71